Sherry, Wisconsin
Current Conditions -  °F | °C
As of 8:54 PM on Saturday 25 Oct 2014 (Local Time) from KMFI Reporting Station
Clear Clear  
Wind Chill: 45°   Ceiling: Unl
Heat Index: 49°   Visibility: 10mi
Dew Point: 27°   Wind: 10mph
Humidity: 43%   Direction: 300°WNW
Pressure: 29.96"   Gusts: NA
Location:  44.6004°N, 89.889°W
Report Text: KMFI 260154Z AUTO 30009KT 10SM CLR 09/M03 A2996 RMK AO2 SLP151 T00941028
Loading
Personal Weather Stations






























Interactive Weather Map
Tropical Storm Tracking
New forecast layout! Learn more

10-Day Weather Forecast

Advertisements
Track Severe Weather on mobile